Time;durP1;ratioP1;P1;durP2;ratioP2;P2;SDS_P1;SDS_P2;PMS_P1;PMS_P2;Temp;Humidity;BMP_temperature;BMP_pressure;BME280_temperature;BME280_humidity;BME280_pressure;Samples;Min_cycle;Max_cycle;Signal;HPM_P1;HPM_P2
2022/11/26 00:01:41;;;;;;;7.33;5.23;;;;;;;5.80;100.00;101316.09;4984429;28;20211;-71
2022/11/26 00:04:09;;;;;;;6.00;4.90;;;;;;;5.86;100.00;101317.09;4982465;28;20216;-73
2022/11/26 00:06:38;;;;;;;7.03;5.00;;;;;;;5.92;100.00;101317.25;4984046;28;20717;-72
2022/11/26 00:09:07;;;;;;;6.27;4.60;;;;;;;6.01;100.00;101319.25;4985704;28;20542;-72
2022/11/26 00:11:32;;;;;;;7.17;5.33;;;;;;;6.09;100.00;101321.19;4984957;28;20935;-73
2022/11/26 00:13:58;;;;;;;6.07;4.87;;;;;;;6.15;100.00;101333.31;4985038;28;20192;-72
2022/11/26 00:16:23;;;;;;;6.17;4.47;;;;;;;6.23;100.00;101333.50;4985081;28;20191;-72
2022/11/26 00:18:48;;;;;;;6.23;4.47;;;;;;;6.29;100.00;101337.94;4985342;28;20211;-72
2022/11/26 00:21:22;;;;;;;9.40;6.20;;;;;;;6.36;100.00;101335.56;4984795;28;20243;-72
2022/11/26 00:23:47;;;;;;;10.23;6.67;;;;;;;6.41;100.00;101338.25;4987097;28;20260;-73
2022/11/26 00:26:16;;;;;;;9.23;6.50;;;;;;;6.46;100.00;101339.25;4985360;28;20744;-72
2022/11/26 00:28:56;;;;;;;9.17;6.03;;;;;;;6.50;100.00;101348.78;4985017;28;20213;-71
2022/11/26 00:31:22;;;;;;;8.90;5.47;;;;;;;6.53;100.00;101343.69;4983601;28;20193;-73
2022/11/26 00:33:48;;;;;;;8.80;5.57;;;;;;;6.58;100.00;101353.22;4988950;28;20195;-72
2022/11/26 00:36:18;;;;;;;7.43;5.00;;;;;;;6.61;100.00;101356.75;4985692;28;20193;-72
2022/11/26 00:38:51;;;;;;;6.93;5.43;;;;;;;6.64;100.00;101355.97;4977826;28;20837;-71
2022/11/26 00:41:20;;;;;;;9.43;5.13;;;;;;;6.66;100.00;101362.00;4983080;28;20204;-71
2022/11/26 00:43:46;;;;;;;8.00;5.33;;;;;;;6.67;100.00;101359.47;4997494;28;20422;-73
2022/11/26 00:46:13;;;;;;;7.40;5.03;;;;;;;6.69;100.00;101359.50;5014296;28;20203;-70
2022/11/26 00:48:39;;;;;;;7.87;4.77;;;;;;;6.71;100.00;101370.69;4992091;28;20214;-71
2022/11/26 00:51:05;;;;;;;6.97;5.00;;;;;;;6.71;100.00;101371.59;4988723;28;20583;-72
2022/11/26 00:53:30;;;;;;;7.17;4.93;;;;;;;6.74;100.00;101375.03;4984714;28;20294;-72
2022/11/26 00:55:55;;;;;;;7.20;4.93;;;;;;;6.73;100.00;101369.03;4987786;28;20238;-72
2022/11/26 00:58:29;;;;;;;5.63;4.23;;;;;;;6.75;100.00;101376.78;4980307;28;20296;-72
2022/11/26 01:00:57;;;;;;;9.60;5.57;;;;;;;6.76;100.00;101383.66;4984606;28;20223;-71
2022/11/26 01:03:24;;;;;;;7.97;5.13;;;;;;;6.76;100.00;101384.56;4986259;28;20267;-71
2022/11/26 01:05:51;;;;;;;8.50;4.87;;;;;;;6.77;100.00;101391.44;4987242;28;20196;-72
2022/11/26 01:08:28;;;;;;;6.23;4.53;;;;;;;6.77;100.00;101396.59;4985533;28;20265;-71
2022/11/26 01:10:54;;;;;;;7.87;4.70;;;;;;;6.77;100.00;101406.88;4984989;28;20183;-72
2022/11/26 01:13:19;;;;;;;5.87;4.47;;;;;;;6.78;100.00;101410.31;4984907;28;20179;-72
2022/11/26 01:15:44;;;;;;;7.53;4.40;;;;;;;6.78;100.00;101418.03;4985266;28;20551;-72
2022/11/26 01:18:19;;;;;;;6.47;4.27;;;;;;;6.78;100.00;101413.78;4985786;28;20184;-72
2022/11/26 01:20:44;;;;;;;6.83;4.60;;;;;;;6.77;100.00;101414.59;4982535;28;20242;-72
2022/11/26 01:23:13;;;;;;;4.87;4.00;;;;;;;6.77;100.00;101422.31;4984054;28;20798;-73
2022/11/26 01:25:40;;;;;;;6.87;4.40;;;;;;;6.75;100.00;101423.09;4986558;28;20189;-72
2022/11/26 01:28:10;;;;;;;6.73;4.37;;;;;;;6.73;100.00;101430.78;4982576;28;20222;-72
2022/11/26 01:30:35;;;;;;;7.50;4.90;;;;;;;6.71;100.00;101435.00;4983161;28;20419;-71
2022/11/26 01:33:01;;;;;;;6.90;4.83;;;;;;;6.68;100.00;101442.66;4985001;28;20713;-72
2022/11/26 01:35:27;;;;;;;6.17;4.60;;;;;;;6.69;100.00;101446.97;4985891;28;20270;-72
2022/11/26 01:37:52;;;;;;;5.60;4.40;;;;;;;6.71;100.00;101447.88;4983892;28;20302;-71
2022/11/26 01:40:24;;;;;;;6.33;4.10;;;;;;;6.75;100.00;101446.25;4983531;28;20653;-71
2022/11/26 01:42:55;;;;;;;7.37;4.30;;;;;;;6.77;100.00;101452.31;4982819;28;20188;-72
2022/11/26 01:45:22;;;;;;;7.03;4.47;;;;;;;6.79;100.00;101458.38;4984542;28;20192;-72
2022/11/26 01:47:48;;;;;;;5.63;4.10;;;;;;;6.81;100.00;101461.84;4983607;28;20187;-72
2022/11/26 01:50:32;;;;;;;4.17;3.77;;;;;;;6.81;100.00;101467.00;4984110;28;20205;-72
2022/11/26 01:53:14;;;;;;;8.87;5.57;;;;;;;6.82;100.00;101476.47;4983666;28;20226;-72
2022/11/26 01:55:45;;;;;;;7.20;4.33;;;;;;;6.81;100.00;101473.00;4984347;28;20230;-72
2022/11/26 01:58:13;;;;;;;6.80;4.80;;;;;;;6.81;100.00;101475.56;4985512;28;20650;-73
2022/11/26 02:00:39;;;;;;;9.53;5.30;;;;;;;6.82;100.00;101479.91;4983646;28;20712;-73
2022/11/26 02:03:06;;;;;;;5.97;4.47;;;;;;;6.83;100.00;101473.91;4983464;28;20279;-72
2022/11/26 02:05:38;;;;;;;8.73;5.40;;;;;;;6.84;100.00;101482.53;4985535;28;20555;-72
2022/11/26 02:08:04;;;;;;;6.13;4.60;;;;;;;6.83;100.00;101480.78;4984300;28;20194;-72
2022/11/26 02:10:30;;;;;;;6.73;5.00;;;;;;;6.82;100.00;101479.91;4987742;28;20204;-71
2022/11/26 02:12:55;;;;;;;7.60;4.77;;;;;;;6.82;100.00;101479.91;4987312;28;20277;-72
2022/11/26 02:15:24;;;;;;;7.60;4.97;;;;;;;6.84;100.00;101487.66;4986624;28;20190;-73
2022/11/26 02:17:56;;;;;;;9.53;5.13;;;;;;;6.83;100.00;101485.94;4989922;28;20211;-72
2022/11/26 02:20:35;;;;;;;9.73;5.17;;;;;;;6.83;100.00;101489.34;4983207;28;20261;-72
2022/11/26 02:23:32;;;;;;;7.77;5.40;;;;;;;6.83;100.00;101497.06;4993424;28;20176;-73
2022/11/26 02:26:32;;;;;;;7.83;5.47;;;;;;;6.83;100.00;101502.22;4985173;28;20184;-71
2022/11/26 02:29:13;;;;;;;8.77;5.33;;;;;;;6.83;100.00;101504.78;4965649;28;20234;-72
2022/11/26 02:31:59;;;;;;;7.13;4.67;;;;;;;6.83;100.00;101511.66;4979122;28;20180;-72
2022/11/26 02:34:45;;;;;;;7.50;5.00;;;;;;;6.83;100.00;101509.94;4985569;28;20664;-73
2022/11/26 02:37:26;;;;;;;8.33;4.87;;;;;;;6.84;100.00;101515.97;4986289;28;20291;-72
2022/11/26 02:39:52;;;;;;;6.90;4.60;;;;;;;6.83;100.00;101509.09;4982875;28;20215;-73
2022/11/26 02:42:28;;;;;;;7.63;5.07;;;;;;;6.82;100.00;101518.50;4986377;28;20605;-72
2022/11/26 02:45:00;;;;;;;6.60;5.00;;;;;;;6.82;100.00;101518.50;4984317;28;20220;-72
2022/11/26 02:47:27;;;;;;;6.27;5.10;;;;;;;6.82;100.00;101523.63;4987909;28;20205;-72
2022/11/26 02:49:54;;;;;;;8.03;4.90;;;;;;;6.83;100.00;101520.22;4989128;28;20257;-72
2022/11/26 02:52:21;;;;;;;9.13;5.27;;;;;;;6.84;100.00;101526.28;4989010;28;20174;-72
2022/11/26 02:54:48;;;;;;;8.10;5.33;;;;;;;6.85;100.00;101526.28;4981135;28;20186;-71
2022/11/26 02:57:20;;;;;;;7.47;5.17;;;;;;;6.87;100.00;101521.22;4988074;28;20278;-72
2022/11/26 02:59:46;;;;;;;6.07;5.17;;;;;;;6.89;100.00;101532.38;4986414;28;20290;-72
2022/11/26 03:02:32;;;;;;;6.47;5.37;;;;;;;6.90;100.00;101536.72;4987635;28;20720;-72
2022/11/26 03:05:00;;;;;;;6.50;5.43;;;;;;;6.91;100.00;101543.59;4987946;28;20186;-72
2022/11/26 03:07:28;;;;;;;8.50;5.93;;;;;;;6.92;100.00;101545.34;4987740;28;20661;-72
2022/11/26 03:09:57;;;;;;;8.93;5.17;;;;;;;6.92;100.00;101542.78;4988434;28;20290;-72
2022/11/26 03:12:23;;;;;;;9.43;5.80;;;;;;;6.91;100.00;101541.03;4984623;28;20210;-73
2022/11/26 03:14:48;;;;;;;7.90;5.80;;;;;;;6.90;100.00;101548.72;4986810;28;20277;-73
2022/11/26 03:17:14;;;;;;;6.37;4.93;;;;;;;6.88;100.00;101548.69;4985684;28;20285;-72
2022/11/26 03:19:39;;;;;;;9.73;5.37;;;;;;;6.84;100.00;101545.13;4982409;28;20212;-72
2022/11/26 03:22:05;;;;;;;6.53;5.27;;;;;;;6.80;100.00;101548.47;4985460;28;20222;-73
2022/11/26 03:24:31;;;;;;;6.73;5.30;;;;;;;6.75;100.00;101542.31;4987355;28;20199;-72
2022/11/26 03:26:57;;;;;;;7.00;5.57;;;;;;;6.71;100.00;101553.34;4986375;28;20189;-72
2022/11/26 03:29:23;;;;;;;11.10;6.00;;;;;;;6.66;100.00;101544.63;4986347;28;21085;-71
2022/11/26 03:31:48;;;;;;;7.60;5.53;;;;;;;6.60;100.00;101550.47;4986646;28;20246;-73
2022/11/26 03:34:13;;;;;;;8.17;5.77;;;;;;;6.54;100.00;101543.47;4985259;28;20553;-72
2022/11/26 03:36:39;;;;;;;9.17;5.23;;;;;;;6.50;100.00;101548.50;4985823;28;20195;-72
2022/11/26 03:39:04;;;;;;;8.47;6.27;;;;;;;6.45;100.00;101545.81;4984811;28;20205;-72
2022/11/26 03:41:30;;;;;;;8.07;6.20;;;;;;;6.38;100.00;101537.03;4987152;28;20673;-72
2022/11/26 03:43:55;;;;;;;8.97;6.30;;;;;;;6.32;100.00;101534.28;4985210;28;20574;-72
2022/11/26 03:46:20;;;;;;;8.50;5.97;;;;;;;6.28;100.00;101526.44;4986387;28;20234;-72
2022/11/26 03:48:46;;;;;;;7.63;5.43;;;;;;;6.25;100.00;101534.94;4985442;28;20222;-72
2022/11/26 03:51:11;;;;;;;7.40;5.70;;;;;;;6.22;100.00;101543.41;4986938;28;20185;-72
2022/11/26 03:53:36;;;;;;;6.30;5.33;;;;;;;6.21;100.00;101544.25;4984717;28;20173;-71
2022/11/26 03:56:02;;;;;;;7.47;5.60;;;;;;;6.21;100.00;101539.09;4987864;28;20215;-72
2022/11/26 03:58:27;;;;;;;7.47;5.97;;;;;;;6.20;100.00;101541.66;4987233;28;20239;-72
2022/11/26 04:00:52;;;;;;;6.83;5.20;;;;;;;6.18;100.00;101533.00;4985311;28;20218;-71
2022/11/26 04:03:18;;;;;;;7.77;5.50;;;;;;;6.16;100.00;101539.81;4987016;28;20588;-72
2022/11/26 04:05:43;;;;;;;6.43;4.93;;;;;;;6.15;100.00;101535.50;4985224;28;20195;-72
2022/11/26 04:08:08;;;;;;;9.13;4.93;;;;;;;6.14;100.00;101537.19;4987929;28;20183;-71
2022/11/26 04:10:35;;;;;;;6.33;4.93;;;;;;;6.13;100.00;101535.47;4981605;28;20215;-72
2022/11/26 04:13:00;;;;;;;5.90;5.07;;;;;;;6.12;100.00;101532.84;4978260;28;20202;-71
2022/11/26 04:15:25;;;;;;;5.87;5.07;;;;;;;6.07;100.00;101525.88;4983774;28;20179;-73
2022/11/26 04:17:51;;;;;;;6.13;5.37;;;;;;;6.04;100.00;101520.63;4986692;28;20325;-72
2022/11/26 04:20:16;;;;;;;9.43;5.40;;;;;;;6.00;100.00;101525.63;4982589;28;20207;-72
2022/11/26 04:22:41;;;;;;;6.93;5.70;;;;;;;5.93;100.00;101525.41;4983868;28;20292;-72
2022/11/26 04:25:07;;;;;;;6.70;5.57;;;;;;;5.87;100.00;101519.22;4987356;28;20220;-72
2022/11/26 04:27:33;;;;;;;7.63;5.77;;;;;;;5.79;100.00;101519.88;4982279;28;20198;-72
2022/11/26 04:29:58;;;;;;;7.67;5.90;;;;;;;5.71;100.00;101517.88;4983590;28;20212;-73
2022/11/26 04:32:24;;;;;;;6.93;6.00;;;;;;;5.59;100.00;101519.25;4982104;28;20192;-71
2022/11/26 04:34:49;;;;;;;7.43;5.97;;;;;;;5.48;100.00;101529.19;4982848;28;20280;-72
2022/11/26 04:37:14;;;;;;;8.03;5.97;;;;;;;5.38;100.00;101534.81;4983284;28;20581;-72
2022/11/26 04:39:40;;;;;;;6.07;5.17;;;;;;;5.24;100.00;101534.38;4983767;28;20247;-72
2022/11/26 04:42:05;;;;;;;7.30;5.77;;;;;;;5.12;100.00;101532.28;4983318;28;20208;-72
2022/11/26 04:44:30;;;;;;;6.83;5.80;;;;;;;5.03;100.00;101542.25;4986095;28;20191;-73
2022/11/26 04:46:56;;;;;;;8.47;6.10;;;;;;;4.93;100.00;101543.63;4983879;28;20307;-72
2022/11/26 04:49:21;;;;;;;8.10;5.90;;;;;;;4.84;100.00;101544.16;4990695;28;20213;-72
2022/11/26 04:51:46;;;;;;;8.43;5.80;;;;;;;4.79;100.00;101543.13;4984483;28;20180;-73
2022/11/26 04:54:12;;;;;;;8.60;5.87;;;;;;;4.74;100.00;101547.25;4982446;28;20190;-72
2022/11/26 04:56:37;;;;;;;6.63;5.60;;;;;;;4.68;100.00;101549.56;4984057;28;20191;-72
2022/11/26 04:59:02;;;;;;;7.00;5.83;;;;;;;4.64;100.00;101553.72;4982085;28;20324;-72
2022/11/26 05:01:28;;;;;;;6.70;5.43;;;;;;;4.60;100.00;101558.69;4984320;28;20210;-72
2022/11/26 05:03:53;;;;;;;7.53;5.70;;;;;;;4.55;100.00;101553.38;4981531;28;20197;-72
2022/11/26 05:06:18;;;;;;;7.77;6.27;;;;;;;4.52;100.00;101559.28;4984392;28;20196;-72
2022/11/26 05:08:44;;;;;;;7.77;5.90;;;;;;;4.48;100.00;101557.41;4983772;28;20320;-71
2022/11/26 05:11:09;;;;;;;7.30;5.80;;;;;;;4.45;100.00;101564.13;4982285;28;20211;-72
2022/11/26 05:13:34;;;;;;;8.07;6.70;;;;;;;4.40;100.00;101576.78;4980234;28;20758;-72
2022/11/26 05:16:00;;;;;;;7.13;5.80;;;;;;;4.37;100.00;101579.22;4980678;28;20297;-72
2022/11/26 05:18:25;;;;;;;7.07;6.30;;;;;;;4.34;100.00;101579.09;4983171;28;20223;-71
2022/11/26 05:20:50;;;;;;;8.77;6.63;;;;;;;4.33;100.00;101580.81;4983859;28;20178;-72
2022/11/26 05:23:15;;;;;;;9.37;7.10;;;;;;;4.31;100.00;101591.81;4979498;28;20187;-71
2022/11/26 05:25:41;;;;;;;8.10;6.87;;;;;;;4.27;100.00;101594.25;4981805;28;20193;-72
2022/11/26 05:28:06;;;;;;;9.50;8.17;;;;;;;4.24;100.00;101588.13;4978352;28;20194;-73
2022/11/26 05:30:31;;;;;;;9.43;8.53;;;;;;;4.21;100.00;101591.47;4978466;28;20211;-73
2022/11/26 05:32:57;;;;;;;8.83;7.53;;;;;;;4.21;100.00;101600.84;4980841;28;20272;-72
2022/11/26 05:35:22;;;;;;;7.20;6.50;;;;;;;4.22;100.00;101603.47;4988111;28;20204;-72
2022/11/26 05:37:47;;;;;;;6.67;5.90;;;;;;;4.24;100.00;101606.06;4981073;28;20277;-73
2022/11/26 05:40:13;;;;;;;6.63;5.10;;;;;;;4.25;100.00;101606.16;4979804;28;20210;-73
2022/11/26 05:42:38;;;;;;;7.70;5.17;;;;;;;4.29;100.00;101612.25;4980494;28;20206;-71
2022/11/26 05:45:05;;;;;;;5.40;4.83;;;;;;;4.31;100.00;101605.50;4986408;28;20547;-72
2022/11/26 05:47:30;;;;;;;6.53;5.20;;;;;;;4.35;100.00;101614.16;4980910;28;20185;-72
2022/11/26 05:49:55;;;;;;;5.67;4.70;;;;;;;4.37;100.00;101616.00;4987574;28;20723;-71
2022/11/26 05:52:21;;;;;;;5.70;5.03;;;;;;;4.40;100.00;101612.66;4983437;28;20199;-73
2022/11/26 05:54:47;;;;;;;6.90;5.63;;;;;;;4.41;100.00;101617.84;4984236;28;20182;-72
2022/11/26 05:57:12;;;;;;;6.90;5.93;;;;;;;4.42;100.00;101617.03;4987460;28;20440;-72
2022/11/26 05:59:37;;;;;;;6.83;6.17;;;;;;;4.43;100.00;101625.59;4991190;28;20208;-71
2022/11/26 06:02:02;;;;;;;9.73;7.37;;;;;;;4.43;100.00;101626.47;4980899;28;20627;-71
2022/11/26 06:04:28;;;;;;;7.63;6.73;;;;;;;4.48;100.00;101633.47;4980574;28;20293;-72
2022/11/26 06:06:53;;;;;;;10.03;6.70;;;;;;;4.52;100.00;101646.44;4984702;28;20236;-72
2022/11/26 06:09:20;;;;;;;7.97;6.70;;;;;;;4.56;100.00;101647.44;4987798;28;20254;-71
2022/11/26 06:11:47;;;;;;;7.33;6.47;;;;;;;4.62;100.00;101646.78;4986160;28;20180;-71
2022/11/26 06:14:12;;;;;;;8.60;6.77;;;;;;;4.66;100.00;101649.53;4983600;28;20193;-73
2022/11/26 06:16:37;;;;;;;8.10;7.30;;;;;;;4.72;100.00;101654.88;4983661;28;20185;-72
2022/11/26 06:19:03;;;;;;;7.83;7.13;;;;;;;4.81;100.00;101664.59;4985817;28;20214;-74
2022/11/26 06:21:28;;;;;;;8.90;6.70;;;;;;;4.91;100.00;101667.53;4978678;28;20273;-72
2022/11/26 06:23:53;;;;;;;8.77;7.47;;;;;;;4.99;100.00;101666.09;4984403;28;20210;-73
2022/11/26 06:26:19;;;;;;;9.27;8.03;;;;;;;5.07;100.00;101674.06;4984550;28;20192;-74
2022/11/26 06:28:44;;;;;;;9.87;8.60;;;;;;;5.16;100.00;101676.97;4987008;28;20217;-73
2022/11/26 06:31:09;;;;;;;8.47;7.57;;;;;;;5.23;100.00;101681.50;4984002;28;20276;-73
2022/11/26 06:33:36;;;;;;;8.40;7.37;;;;;;;5.31;100.00;101684.34;4991175;28;20190;-72
2022/11/26 06:36:03;;;;;;;9.43;7.50;;;;;;;5.39;100.00;101689.75;5011162;28;20171;-72
2022/11/26 06:38:28;;;;;;;9.87;8.00;;;;;;;5.45;100.00;101689.94;4999698;28;20549;-72
2022/11/26 06:41:03;;;;;;;10.07;7.60;;;;;;;5.52;100.00;101685.94;4982216;28;20186;-72
2022/11/26 06:43:29;;;;;;;10.90;7.80;;;;;;;5.56;100.00;101686.09;4986882;28;20191;-72
2022/11/26 06:46:00;;;;;;;8.47;7.60;;;;;;;5.61;100.00;101688.78;4985065;28;20203;-72
2022/11/26 06:48:25;;;;;;;10.73;8.73;;;;;;;5.64;100.00;101694.91;4983367;28;20989;-72
2022/11/26 06:50:51;;;;;;;9.47;8.40;;;;;;;5.67;100.00;101701.88;4982908;28;20196;-72
2022/11/26 06:53:17;;;;;;;10.47;7.90;;;;;;;5.69;100.00;101707.03;4982040;28;20223;-72
2022/11/26 06:55:42;;;;;;;10.20;7.97;;;;;;;5.70;100.00;101709.66;4985550;28;20281;-72
2022/11/26 06:58:08;;;;;;;10.83;7.83;;;;;;;5.73;100.00;101720.03;4980913;28;20204;-73
2022/11/26 07:00:33;;;;;;;9.77;7.70;;;;;;;5.76;100.00;101721.81;4986582;28;20211;-71
2022/11/26 07:02:58;;;;;;;8.50;7.10;;;;;;;5.78;100.00;101720.19;4987941;28;20290;-72
2022/11/26 07:05:24;;;;;;;9.70;7.23;;;;;;;5.80;100.00;101719.44;4988883;28;20199;-71
2022/11/26 07:07:49;;;;;;;10.30;8.40;;;;;;;5.83;100.00;101717.75;4981888;28;20188;-72
2022/11/26 07:10:14;;;;;;;10.50;8.07;;;;;;;5.83;100.00;101712.63;4983954;28;20695;-71
2022/11/26 07:12:40;;;;;;;11.60;8.60;;;;;;;5.83;100.00;101716.09;4987297;28;20189;-71
2022/11/26 07:15:05;;;;;;;11.37;7.60;;;;;;;5.83;100.00;101718.66;4987057;28;20199;-72
2022/11/26 07:17:31;;;;;;;10.30;7.63;;;;;;;5.79;100.00;101720.25;4984899;28;20189;-73
2022/11/26 07:19:56;;;;;;;8.60;7.63;;;;;;;5.74;100.00;101716.66;4986449;28;20587;-72
2022/11/26 07:22:21;;;;;;;8.30;7.43;;;;;;;5.70;100.00;101724.19;4991499;28;20303;-71
2022/11/26 07:24:47;;;;;;;8.27;7.10;;;;;;;5.69;100.00;101732.72;4988004;28;20202;-70
2022/11/26 07:27:12;;;;;;;7.97;7.17;;;;;;;5.69;100.00;101735.28;4986667;28;20247;-72
2022/11/26 07:29:37;;;;;;;9.70;7.90;;;;;;;5.68;100.00;101739.53;4989056;28;20214;-72
2022/11/26 07:32:02;;;;;;;8.73;7.93;;;;;;;5.68;100.00;101744.69;4983861;28;20826;-71
2022/11/26 07:34:28;;;;;;;12.13;8.03;;;;;;;5.67;100.00;101740.38;4983334;28;20191;-72
2022/11/26 07:36:53;;;;;;;9.60;8.23;;;;;;;5.67;100.00;101742.06;4981901;28;20194;-72
2022/11/26 07:39:18;;;;;;;10.13;8.43;;;;;;;5.64;100.00;101743.69;4982214;28;20242;-71
2022/11/26 07:41:44;;;;;;;10.47;8.37;;;;;;;5.62;100.00;101752.19;4981488;28;20238;-73
2022/11/26 07:44:12;;;;;;;9.80;8.07;;;;;;;5.58;100.00;101746.06;4983205;28;20213;-71
2022/11/26 07:46:37;;;;;;;9.67;8.30;;;;;;;5.57;100.00;101743.44;4985321;28;20283;-72
2022/11/26 07:49:03;;;;;;;11.10;8.50;;;;;;;5.56;100.00;101749.38;4983749;28;20226;-71
2022/11/26 07:51:30;;;;;;;8.80;7.87;;;;;;;5.56;100.00;101741.69;4983742;28;20185;-72
2022/11/26 07:53:57;;;;;;;10.63;8.53;;;;;;;5.54;100.00;101741.66;4985198;28;20632;-70
2022/11/26 07:56:22;;;;;;;10.83;8.53;;;;;;;5.51;100.00;101744.09;4985151;28;20187;-72
2022/11/26 07:58:47;;;;;;;9.33;8.00;;;;;;;5.48;100.00;101741.41;4984095;28;20694;-75
2022/11/26 08:01:21;;;;;;;9.53;8.43;;;;;;;5.49;100.00;101746.63;4983283;28;20760;-72
2022/11/26 08:03:49;;;;;;;11.10;8.67;;;;;;;5.48;100.00;101751.69;4978899;28;20197;-71
2022/11/26 08:06:17;;;;;;;8.27;7.40;;;;;;;5.49;100.00;101756.91;4980779;28;20756;-73
2022/11/26 08:08:42;;;;;;;10.03;7.73;;;;;;;5.56;100.00;101757.97;4984407;28;20262;-72
2022/11/26 08:11:18;;;;;;;9.53;7.90;;;;;;;5.63;100.00;101757.38;4977011;28;20280;-73
2022/11/26 08:13:45;;;;;;;8.60;7.77;;;;;;;5.69;100.00;101766.97;4989151;28;20261;-72
2022/11/26 08:16:11;;;;;;;10.63;8.13;;;;;;;5.76;100.00;101775.78;4992886;28;20562;-72
2022/11/26 08:18:37;;;;;;;9.57;8.07;;;;;;;5.80;100.00;101777.63;4986234;28;20229;-72
2022/11/26 08:21:02;;;;;;;8.93;8.03;;;;;;;5.89;100.00;101785.69;4982982;28;20300;-71
2022/11/26 08:23:29;;;;;;;8.90;8.00;;;;;;;5.98;100.00;101779.94;4978663;28;20193;-72
2022/11/26 08:25:54;;;;;;;9.33;8.00;;;;;;;6.06;100.00;101786.28;4986385;28;20200;-72
2022/11/26 08:28:20;;;;;;;10.70;8.53;;;;;;;6.14;100.00;101781.38;4975077;28;20211;-72
2022/11/26 08:30:45;;;;;;;10.50;8.60;;;;;;;6.24;100.00;101783.44;4985038;28;20626;-73
2022/11/26 08:33:11;;;;;;;13.20;9.73;;;;;;;6.33;100.00;101771.72;4981854;28;20306;-72
2022/11/26 08:35:37;;;;;;;13.30;10.03;;;;;;;6.42;100.00;101776.28;4969732;28;20682;-73
2022/11/26 08:38:02;;;;;;;10.43;9.37;;;;;;;6.44;100.00;101779.75;4989963;28;20825;-71
2022/11/26 08:40:28;;;;;;;16.87;11.67;;;;;;;6.45;100.00;101787.53;4980908;28;20213;-72
2022/11/26 08:42:53;;;;;;;11.17;10.00;;;;;;;6.47;100.00;101783.31;4983363;28;20227;-71
2022/11/26 08:45:18;;;;;;;12.47;9.87;;;;;;;6.58;100.00;101781.06;4989792;28;20581;-73
2022/11/26 08:47:44;;;;;;;12.10;9.70;;;;;;;6.68;100.00;101780.56;4983096;28;20591;-73
2022/11/26 08:50:10;;;;;;;11.40;10.03;;;;;;;6.81;100.00;101792.06;4980445;28;20223;-73
2022/11/26 08:52:35;;;;;;;12.73;9.70;;;;;;;6.92;100.00;101791.56;4976877;28;20259;-73
2022/11/26 08:55:00;;;;;;;11.40;9.10;;;;;;;7.03;100.00;101799.59;4977920;28;20201;-72
2022/11/26 08:57:26;;;;;;;12.13;10.10;;;;;;;7.11;100.00;101795.53;4984663;28;20192;-73
2022/11/26 08:59:53;;;;;;;11.57;10.33;;;;;;;7.17;100.00;101791.44;4983572;28;20221;-73
2022/11/26 09:02:19;;;;;;;10.93;9.67;;;;;;;7.21;100.00;101792.41;4977699;28;20218;-72
2022/11/26 09:04:45;;;;;;;12.00;9.40;;;;;;;7.28;100.00;101793.44;4979010;28;20215;-72
2022/11/26 09:07:10;;;;;;;10.70;9.13;;;;;;;7.37;100.00;101801.47;4975873;28;20733;-72
2022/11/26 09:09:35;;;;;;;10.83;9.57;;;;;;;7.45;100.00;101805.13;4976096;28;20203;-74
2022/11/26 09:12:01;;;;;;;12.70;9.47;;;;;;;7.54;100.00;101809.66;4978852;28;20185;-72
2022/11/26 09:14:30;;;;;;;11.50;9.90;;;;;;;7.65;100.00;101809.06;4978315;28;20300;-72
2022/11/26 09:16:56;;;;;;;12.23;10.57;;;;;;;7.76;100.00;101811.13;4977641;28;20188;-70
2022/11/26 09:19:22;;;;;;;11.30;10.20;;;;;;;7.87;100.00;101806.25;4975003;28;20209;-73
2022/11/26 09:21:48;;;;;;;11.20;10.13;;;;;;;8.00;100.00;101809.16;4978455;28;20326;-74
2022/11/26 09:24:15;;;;;;;10.73;9.63;;;;;;;8.11;100.00;101812.88;4979137;28;20893;-72
2022/11/26 09:26:40;;;;;;;10.63;8.90;;;;;;;8.20;100.00;101813.13;4974584;28;20211;-72
2022/11/26 09:29:06;;;;;;;10.00;9.00;;;;;;;8.30;100.00;101805.63;4971100;28;20220;-72
2022/11/26 09:31:32;;;;;;;8.87;8.07;;;;;;;8.33;100.00;101811.72;4982924;28;20276;-73
2022/11/26 09:33:59;;;;;;;8.33;7.30;;;;;;;8.35;100.00;101816.94;4979398;28;20187;-72
2022/11/26 09:36:24;;;;;;;9.30;8.20;;;;;;;8.36;100.00;101809.22;4981442;28;20237;-72
2022/11/26 09:38:57;;;;;;;9.30;7.40;;;;;;;8.42;100.00;101813.66;4984445;28;20216;-73
2022/11/26 09:41:56;;;;;;;11.87;10.27;;;;;;;8.48;100.00;101818.13;4978493;28;20214;-72
2022/11/26 09:44:44;;;;;;;11.03;9.07;;;;;;;8.52;100.00;101825.09;4980963;28;20205;-72
2022/11/26 09:47:19;;;;;;;10.83;9.23;;;;;;;8.51;100.00;101805.28;4979334;28;20654;-74
2022/11/26 09:50:05;;;;;;;9.70;8.73;;;;;;;8.52;100.00;101813.09;4985673;28;20222;-73
2022/11/26 09:52:58;;;;;;;11.77;8.60;;;;;;;8.52;100.00;101813.09;4979086;28;20188;-72
2022/11/26 09:55:28;;;;;;;8.50;7.60;;;;;;;8.57;100.00;101812.31;4988179;28;20220;-73
2022/11/26 09:58:08;;;;;;;10.23;8.00;;;;;;;8.68;100.00;101796.25;4984137;28;20184;-74
2022/11/26 10:00:39;;;;;;;8.13;6.87;;;;;;;8.80;100.00;101795.66;4980959;28;20263;-72
2022/11/26 10:03:15;;;;;;;7.87;7.03;;;;;;;8.96;100.00;101791.69;4984267;28;20307;-73
2022/11/26 10:05:43;;;;;;;9.60;6.60;;;;;;;9.13;100.00;101789.50;4981869;28;20782;-73
2022/11/26 10:08:34;;;;;;;7.67;5.67;;;;;;;9.30;100.00;101796.75;4979992;28;20192;-73
2022/11/26 10:11:24;;;;;;;8.00;6.53;;;;;;;9.39;100.00;101790.84;4973522;28;20189;-72
2022/11/26 10:14:04;;;;;;;7.43;5.73;;;;;;;9.48;100.00;101797.91;4972179;28;20200;-73
2022/11/26 10:16:53;;;;;;;8.07;5.73;;;;;;;9.54;100.00;101808.41;4975823;28;20307;-72
2022/11/26 10:19:32;;;;;;;6.97;5.37;;;;;;;9.59;100.00;101805.06;4972789;28;20432;-73
2022/11/26 10:22:02;;;;;;;8.90;6.93;;;;;;;9.65;100.00;101808.63;4976285;28;20216;-72
2022/11/26 10:24:35;;;;;;;6.53;4.90;;;;;;;9.70;100.00;101799.22;4981318;28;20190;-73
2022/11/26 10:27:08;;;;;;;10.20;5.97;;;;;;;9.75;100.00;101815.69;4978218;28;20201;-73
2022/11/26 10:29:38;;;;;;;7.33;5.33;;;;;;;9.82;100.00;101806.34;4980311;28;20297;-72
2022/11/26 10:32:24;;;;;;;7.33;5.27;;;;;;;9.92;100.00;101800.47;4985730;28;20190;-72
2022/11/26 10:34:52;;;;;;;8.10;5.43;;;;;;;10.07;100.00;101807.66;4988219;28;20192;-72
2022/11/26 10:37:23;;;;;;;7.87;4.97;;;;;;;10.21;100.00;101805.28;4987848;28;20189;-72
2022/11/26 10:39:56;;;;;;;9.43;5.43;;;;;;;10.29;100.00;101802.81;4985855;28;20282;-71
2022/11/26 10:42:22;;;;;;;7.57;4.97;;;;;;;10.33;100.00;101796.88;4982902;28;20335;-72
2022/11/26 10:44:50;;;;;;;8.17;4.73;;;;;;;10.38;100.00;101800.44;4979431;28;20189;-73
2022/11/26 10:47:26;;;;;;;6.30;4.70;;;;;;;10.44;100.00;101808.28;4981114;28;20208;-72
2022/11/26 10:49:54;;;;;;;5.90;4.00;;;;;;;10.51;100.00;101804.13;4983228;28;21088;-73
2022/11/26 10:52:27;;;;;;;4.97;4.10;;;;;;;10.55;100.00;101795.53;4975928;28;20269;-72
2022/11/26 10:55:19;;;;;;;6.17;4.17;;;;;;;10.59;100.00;101792.16;4982750;28;20193;-73
2022/11/26 10:57:50;;;;;;;6.17;4.00;;;;;;;10.66;100.00;101787.94;4981819;28;20306;-73
2022/11/26 11:00:31;;;;;;;4.93;3.40;;;;;;;10.66;100.00;101778.44;4979473;28;20694;-72
2022/11/26 11:02:57;;;;;;;5.80;3.40;;;;;;;10.65;100.00;101776.72;4982125;28;20480;-72
2022/11/26 11:05:23;;;;;;;6.57;4.10;;;;;;;10.67;100.00;101780.16;4992444;28;20205;-73
2022/11/26 11:07:52;;;;;;;6.80;4.20;;;;;;;10.51;100.00;101780.81;4977443;28;20269;-73
2022/11/26 11:10:20;;;;;;;4.33;3.23;;;;;;;10.35;100.00;101780.53;4980269;28;20252;-73
2022/11/26 11:13:00;;;;;;;6.47;3.90;;;;;;;10.29;100.00;101779.53;4982214;28;20268;-73
2022/11/26 11:15:29;;;;;;;9.00;4.00;;;;;;;10.26;100.00;101772.63;4993261;28;20235;-73
2022/11/26 11:18:01;;;;;;;6.87;4.10;;;;;;;10.39;100.00;101763.38;4983623;28;20594;-71
2022/11/26 11:20:28;;;;;;;8.03;4.33;;;;;;;10.48;100.00;101762.66;4979734;28;20244;-73
2022/11/26 11:23:02;;;;;;;6.13;3.70;;;;;;;10.62;100.00;101758.53;4979721;28;20220;-72
2022/11/26 11:25:31;;;;;;;7.90;3.63;;;;;;;10.75;100.00;101758.72;4977704;28;20994;-72
2022/11/26 11:28:11;;;;;;;5.67;3.90;;;;;;;10.87;100.00;101755.44;4976684;28;20210;-73